Darstellungsparameter: Aktuell verwendete Einstellungen:
Skalierung der Graphiken ... ?
xyx+y,   Skalierungsfaktor:      Skalierung: Modus: x, Faktor: 1
Darstellungszeitraum ... ?
Vom - - bis: - -   Zeitraum: 05.09.2020 - 05.10.2020
Min/Max/Avg-Anzeige ... ?
Zeige MMA aktuell
Zeige MMA Monat
Zeige MMA alles
Zeige --A aktuell
Zeige --A Monat
Zeige --A alles
Keine MMA-Anzeige
MMA:
Average (ber die Originaldaten)
MMA-Basis: 05.09.2020 - 05.10.2020
Quicknavigation für Darstellung... ?
Tage:      1T, 2T, 3T, 5T -1T -2T -3T -5T +1T +2T +3T +5T
Wochen: 1W, 2W, 3W -1W -2W -3W +1W +2W +3W
Monate: 1M, 3M, 6M -1M -3M -6M +1M +3M +6M
Jahre:    1J, 3J, 5J, 10J -1J -3J -5J -10J +1J +3J +5J +10J
Nutze für die Darstellung ... ?
Originaldaten oder ...
Mittelwerte Minima Maxima auf...
Stundenbasis Tagesbasis Wochenbasis
Monatsbasis Jahresbasis      Datenbasis: Mittelwerte auf Stundenbasis
Darstellen als:
Statistik (Auto) Statistik J:M      Darstellung:
Zur Graphik,    zurück zur Übersicht aller Sensoren.
 
Tabellarische Datenbersicht: ?
 
Sensor: Nr:Datum:Temp:Abs-Feuchte:Windchill:Wind:
Aussen-T/F 1 05-09-2020 00:00:00 17.79167 C 13.8 g/m*3 17.79 C 2 km/h
2 05-09-2020 01:00:00 16.61667 C 13.06 g/m*3 16.62 C 0 km/h
3 05-09-2020 02:00:00 15.875 C 12.68 g/m*3 15.88 C 0 km/h
4 05-09-2020 03:00:00 16.04167 C 12.98 g/m*3 16.04 C 0 km/h
5 05-09-2020 04:00:00 16.50833 C 13.46 g/m*3 16.51 C 0.4 km/h
6 05-09-2020 05:00:00 16.7 C 13.58 g/m*3 16.7 C 0 km/h
7 05-09-2020 06:00:00 16.25833 C 12.62 g/m*3 16.26 C 6.04167 km/h
8 05-09-2020 07:00:00 15.81667 C 11.42 g/m*3 15.82 C 4.00833 km/h
9 05-09-2020 08:00:00 15.50833 C 11.31 g/m*3 15.51 C 2.26667 km/h
10 05-09-2020 09:00:00 15.875 C 11.35 g/m*3 15.88 C 3.475 km/h
11 05-09-2020 10:00:00 16.64167 C 11.42 g/m*3 16.64 C 6.84167 km/h
12 05-09-2020 11:00:00 17.79167 C 11.57 g/m*3 17.79 C 7.93333 km/h
13 05-09-2020 12:00:00 18.36667 C 11.37 g/m*3 18.37 C 11.15 km/h
14 05-09-2020 13:00:00 18.64167 C 11.31 g/m*3 18.64 C 11.025 km/h
15 05-09-2020 14:00:00 18.825 C 11.17 g/m*3 18.83 C 12.89167 km/h
16 05-09-2020 15:00:00 17.76667 C 11.07 g/m*3 17.77 C 11.3 km/h
17 05-09-2020 16:00:00 18.68333 C 10.68 g/m*3 18.68 C 9.69167 km/h
18 05-09-2020 17:00:00 19.44167 C 10.05 g/m*3 19.44 C 9.425 km/h
19 05-09-2020 18:00:00 20.2 C 9.08 g/m*3 20.2 C 7.91667 km/h
20 05-09-2020 19:00:00 18.6 C 9.23 g/m*3 18.6 C 1.74167 km/h
21 05-09-2020 20:00:00 16.40833 C 9.19 g/m*3 16.41 C 3.60833 km/h
22 05-09-2020 21:00:00 14.35833 C 9.35 g/m*3 14.36 C 3.06667 km/h
23 05-09-2020 22:00:00 13.725 C 9.27 g/m*3 13.73 C 3.6 km/h
24 05-09-2020 23:00:00 13.08333 C 9.22 g/m*3 13.08 C 4.53333 km/h
25 06-09-2020 00:00:00 12.55 C 9.19 g/m*3 12.55 C 2.8 km/h
Sensor: Nr:Datum:Temp:Abs-Feuchte:Windchill:Wind:
Aussen-T/F 26 06-09-2020 01:00:00 11.725 C 9.08 g/m*3 11.73 C 0 km/h
27 06-09-2020 02:00:00 10.51667 C 8.62 g/m*3 10.52 C 0.13333 km/h
28 06-09-2020 03:00:00 9.65 C 8.34 g/m*3 9.65 C 0.26667 km/h
29 06-09-2020 04:00:00 9.06667 C 8.17 g/m*3 9.07 C 0.13333 km/h
30 06-09-2020 05:00:00 8.60833 C 8.03 g/m*3 8.61 C 0.4 km/h
31 06-09-2020 06:00:00 8.175 C 7.85 g/m*3 8.18 C 0 km/h
32 06-09-2020 07:00:00 8.03333 C 7.85 g/m*3 8.03 C 0.13333 km/h
33 06-09-2020 08:00:00 8.125 C 7.92 g/m*3 8.13 C 0.53333 km/h
34 06-09-2020 09:00:00 8.96667 C 8.42 g/m*3 8.97 C 1.33333 km/h
35 06-09-2020 10:00:00 10.61667 C 9.31 g/m*3 10.62 C 0.4 km/h
36 06-09-2020 11:00:00 13.84167 C 9.64 g/m*3 13.84 C 0.53333 km/h
37 06-09-2020 12:00:00 16.43333 C 9.18 g/m*3 16.43 C 4.825 km/h
38 06-09-2020 13:00:00 17.45 C 8.83 g/m*3 17.45 C 4.03333 km/h
39 06-09-2020 14:00:00 18.61667 C 8.8 g/m*3 18.62 C 4.55 km/h
40 06-09-2020 15:00:00 19.04167 C 8.6 g/m*3 19.04 C 6.30833 km/h
41 06-09-2020 16:00:00 18.5 C 8.43 g/m*3 18.5 C 5.50833 km/h
42 06-09-2020 17:00:00 18.56667 C 8.68 g/m*3 18.57 C 7.53333 km/h
43 06-09-2020 18:00:00 19.11667 C 8.76 g/m*3 19.12 C 3.34167 km/h
44 06-09-2020 19:00:00 18.65 C 8.87 g/m*3 18.65 C 2.4 km/h
45 06-09-2020 20:00:00 14.71667 C 8.58 g/m*3 14.72 C 0 km/h
46 06-09-2020 21:00:00 12.83333 C 8.62 g/m*3 12.83 C 0 km/h
47 06-09-2020 22:00:00 12.35 C 8.89 g/m*3 12.35 C 0 km/h
48 06-09-2020 23:00:00 12.575 C 9.02 g/m*3 12.58 C 0.26667 km/h
49 07-09-2020 00:00:00 12.59167 C 9.03 g/m*3 12.59 C 0.13333 km/h
50 07-09-2020 01:00:00 12.19167 C 8.95 g/m*3 12.19 C 0 km/h
Sensor: Nr:Datum:Temp:Abs-Feuchte:Windchill:Wind:
Aussen-T/F 51 07-09-2020 02:00:00 10.725 C 8.44 g/m*3 10.73 C 0.13333 km/h
52 07-09-2020 03:00:00 9.475 C 8.1 g/m*3 9.48 C 0.13333 km/h
53 07-09-2020 04:00:00 8.80833 C 7.93 g/m*3 8.81 C 0.13333 km/h
54 07-09-2020 05:00:00 8.24167 C 7.76 g/m*3 8.24 C 0.4 km/h
55 07-09-2020 06:00:00 7.81667 C 7.62 g/m*3 7.82 C 0.53333 km/h
56 07-09-2020 07:00:00 7.6 C 7.57 g/m*3 7.6 C 0 km/h
57 07-09-2020 08:00:00 7.98333 C 7.85 g/m*3 7.98 C 0.26667 km/h
58 07-09-2020 09:00:00 8.95833 C 8.39 g/m*3 8.96 C 0.4 km/h
59 07-09-2020 10:00:00 10.56667 C 9.29 g/m*3 10.57 C 0.93333 km/h
60 07-09-2020 11:00:00 13.66667 C 10.23 g/m*3 13.67 C 1.73333 km/h
61 07-09-2020 12:00:00 16.475 C 10 g/m*3 16.48 C 3.34167 km/h
62 07-09-2020 13:00:00 18.13333 C 9.44 g/m*3 18.13 C 3.875 km/h
63 07-09-2020 14:00:00 19.43333 C 8.85 g/m*3 19.43 C 6.71667 km/h
64 07-09-2020 15:00:00 20.7 C 8.84 g/m*3 20.7 C 5.475 km/h
65 07-09-2020 16:00:00 21.69167 C 8.87 g/m*3 21.69 C 5.35 km/h
66 07-09-2020 17:00:00 22.85 C 9.02 g/m*3 22.85 C 3.74167 km/h
67 07-09-2020 18:00:00 22.425 C 10.01 g/m*3 22.43 C 0.66667 km/h
68 07-09-2020 19:00:00 20.85 C 10.05 g/m*3 20.85 C 2.53333 km/h
69 07-09-2020 20:00:00 16.58333 C 9.18 g/m*3 16.58 C 3.73333 km/h
70 07-09-2020 21:00:00 14.21667 C 9.18 g/m*3 14.22 C 0.53333 km/h
71 07-09-2020 22:00:00 12.7 C 8.95 g/m*3 12.7 C 0 km/h
72 07-09-2020 23:00:00 11.675 C 8.68 g/m*3 11.68 C 0 km/h
73 08-09-2020 00:00:00 10.875 C 8.49 g/m*3 10.88 C 0 km/h
74 08-09-2020 01:00:00 10.425 C 8.43 g/m*3 10.43 C 0.13333 km/h
75 08-09-2020 02:00:00 9.775 C 8.24 g/m*3 9.78 C 0 km/h
Sensor: Nr:Datum:Temp:Abs-Feuchte:Windchill:Wind:
Aussen-T/F 76 08-09-2020 03:00:00 9.25 C 8.1 g/m*3 9.25 C 0 km/h
77 08-09-2020 04:00:00 8.725 C 7.93 g/m*3 8.73 C 0 km/h
78 08-09-2020 05:00:00 8.41667 C 7.86 g/m*3 8.42 C 0 km/h
79 08-09-2020 06:00:00 8.05833 C 7.72 g/m*3 8.06 C 0 km/h
80 08-09-2020 07:00:00 8.125 C 7.83 g/m*3 8.13 C 0 km/h
81 08-09-2020 08:00:00 8.76667 C 8.17 g/m*3 8.77 C 0 km/h
82 08-09-2020 09:00:00 9.725 C 8.68 g/m*3 9.73 C 0.8 km/h
83 08-09-2020 10:00:00 12.20833 C 9.76 g/m*3 12.21 C 2.53333 km/h
84 08-09-2020 11:00:00 17.40833 C 10.33 g/m*3 17.41 C 6.99167 km/h
85 08-09-2020 12:00:00 20.70833 C 10.33 g/m*3 20.71 C 10.89167 km/h
86 08-09-2020 13:00:00 22.10833 C 10.22 g/m*3 22.11 C 10.48333 km/h
87 08-09-2020 14:00:00 23.06667 C 10.26 g/m*3 23.07 C 9.55833 km/h
88 08-09-2020 15:00:00 24.23333 C 10.27 g/m*3 24.23 C 10.74167 km/h
89 08-09-2020 16:00:00 25.63333 C 10.38 g/m*3 25.63 C 9.14167 km/h
90 08-09-2020 17:00:00 27.58333 C 10.63 g/m*3 27.58 C 9 km/h
91 08-09-2020 18:00:00 27.83333 C 11.18 g/m*3 27.83 C 6.43333 km/h
92 08-09-2020 19:00:00 25.13333 C 12.47 g/m*3 25.13 C 4.95 km/h
93 08-09-2020 20:00:00 20.625 C 12.44 g/m*3 20.63 C 1.46667 km/h
94 08-09-2020 21:00:00 18.66667 C 12.26 g/m*3 18.67 C 2.26667 km/h
95 08-09-2020 22:00:00 17.56667 C 12.04 g/m*3 17.57 C 2.66667 km/h
96 08-09-2020 23:00:00 16.24167 C 11.73 g/m*3 16.24 C 0 km/h
97 09-09-2020 00:00:00 15.15833 C 11.41 g/m*3 15.16 C 0 km/h
98 09-09-2020 01:00:00 14.46667 C 11.23 g/m*3 14.47 C 0 km/h
99 09-09-2020 02:00:00 13.90833 C 10.98 g/m*3 13.91 C 0 km/h
100 09-09-2020 03:00:00 13.35 C 10.76 g/m*3 13.35 C 0 km/h
Sensor: Nr:Datum:Temp:Abs-Feuchte:Windchill:Wind:
Aussen-T/F 101 09-09-2020 04:00:00 12.86667 C 10.49 g/m*3 12.87 C 0 km/h
102 09-09-2020 05:00:00 12.46667 C 10.32 g/m*3 12.47 C 0 km/h
103 09-09-2020 06:00:00 12.18333 C 10.2 g/m*3 12.18 C 0 km/h
104 09-09-2020 07:00:00 12.01667 C 10.14 g/m*3 12.02 C 0.13333 km/h
105 09-09-2020 08:00:00 12.41667 C 10.47 g/m*3 12.42 C 1.2 km/h
106 09-09-2020 09:00:00 13.48333 C 11.25 g/m*3 13.48 C 1.6 km/h
107 09-09-2020 10:00:00 16.26667 C 12.88 g/m*3 16.27 C 0.13333 km/h
108 09-09-2020 11:00:00 20.69167 C 13.52 g/m*3 20.69 C 0.53333 km/h
109 09-09-2020 12:00:00 22.36667 C 13.68 g/m*3 22.37 C 3.74167 km/h
110 09-09-2020 13:00:00 22.85 C 13.87 g/m*3 22.85 C 5.225 km/h
111 09-09-2020 14:00:00 23.69167 C 13.99 g/m*3 23.69 C 7.66667 km/h
112 09-09-2020 15:00:00 24.1 C 14.19 g/m*3 24.1 C 7.38333 km/h
113 09-09-2020 16:00:00 23.925 C 14.06 g/m*3 23.93 C 4.55 km/h
114 09-09-2020 17:00:00 24.525 C 14.16 g/m*3 24.53 C 4.54167 km/h
115 09-09-2020 18:00:00 24.46667 C 14.72 g/m*3 24.47 C 1.20833 km/h
116 09-09-2020 19:00:00 22.70833 C 14.54 g/m*3 22.71 C 0 km/h
117 09-09-2020 20:00:00 21.025 C 14.08 g/m*3 21.03 C 0.13333 km/h
118 09-09-2020 21:00:00 19.75 C 13.58 g/m*3 19.75 C 4.8 km/h
119 09-09-2020 22:00:00 19.65833 C 13.75 g/m*3 19.66 C 1.2 km/h
120 09-09-2020 23:00:00 20.05833 C 13.73 g/m*3 20.06 C 4.00833 km/h
121 10-09-2020 00:00:00 20.18333 C 14.59 g/m*3 20.18 C 10.89167 km/h
122 10-09-2020 01:00:00 18.69167 C 14.51 g/m*3 18.69 C 8.6 km/h
123 10-09-2020 02:00:00 17.675 C 13.63 g/m*3 17.68 C 4.55833 km/h
124 10-09-2020 03:00:00 17.175 C 13.05 g/m*3 17.18 C 2.00833 km/h
125 10-09-2020 04:00:00 16.85833 C 12.55 g/m*3 16.86 C 1.06667 km/h
Sensor: Nr:Datum:Temp:Abs-Feuchte:Windchill:Wind:
Aussen-T/F 126 10-09-2020 05:00:00 16.56667 C 11.82 g/m*3 16.57 C 2.13333 km/h
127 10-09-2020 06:00:00 16.08333 C 11.56 g/m*3 16.08 C 3.075 km/h
128 10-09-2020 07:00:00 15.475 C 11.38 g/m*3 15.48 C 5.1 km/h
129 10-09-2020 08:00:00 15.35833 C 11.29 g/m*3 15.36 C 2.4 km/h
130 10-09-2020 09:00:00 15.56667 C 11.39 g/m*3 15.57 C 3.875 km/h
131 10-09-2020 10:00:00 15.93333 C 10.87 g/m*3 15.93 C 6.71667 km/h
132 10-09-2020 11:00:00 16.7 C 10.67 g/m*3 16.7 C 5.36667 km/h
133 10-09-2020 12:00:00 17.83333 C 10.28 g/m*3 17.83 C 7.24167 km/h
134 10-09-2020 13:00:00 18.54167 C 9.52 g/m*3 18.54 C 5.9 km/h
135 10-09-2020 14:00:00 19.66667 C 9.96 g/m*3 19.67 C 5.5 km/h
136 10-09-2020 15:00:00 20.84167 C 10.16 g/m*3 20.84 C 7.11667 km/h
137 10-09-2020 16:00:00 22.06667 C 10.31 g/m*3 22.07 C 7.65833 km/h
138 10-09-2020 17:00:00 22.73333 C 10.27 g/m*3 22.73 C 8.61667 km/h
139 10-09-2020 18:00:00 22.45 C 10.24 g/m*3 22.45 C 5.225 km/h
140 10-09-2020 19:00:00 20.80833 C 9.8 g/m*3 20.81 C 2 km/h
141 10-09-2020 20:00:00 17.675 C 9.25 g/m*3 17.68 C 1.33333 km/h
142 10-09-2020 21:00:00 15.60833 C 8.98 g/m*3 15.61 C 3.2 km/h
143 10-09-2020 22:00:00 14.325 C 9.01 g/m*3 14.33 C 0.4 km/h
144 10-09-2020 23:00:00 12.7 C 8.75 g/m*3 12.7 C 0 km/h
145 11-09-2020 00:00:00 12.08333 C 8.78 g/m*3 12.08 C 0 km/h
146 11-09-2020 01:00:00 11.95 C 8.78 g/m*3 11.95 C 0 km/h
147 11-09-2020 02:00:00 11.05833 C 8.52 g/m*3 11.06 C 0 km/h
148 11-09-2020 03:00:00 10.23333 C 8.35 g/m*3 10.23 C 0 km/h
149 11-09-2020 04:00:00 9.59167 C 8.23 g/m*3 9.59 C 0 km/h
150 11-09-2020 05:00:00 8.95833 C 8.03 g/m*3 8.96 C 0 km/h
Sensor: Nr:Datum:Temp:Abs-Feuchte:Windchill:Wind:
Aussen-T/F 151 11-09-2020 06:00:00 8.43333 C 7.87 g/m*3 8.43 C 0 km/h
152 11-09-2020 07:00:00 8.26667 C 7.88 g/m*3 8.27 C 0 km/h
153 11-09-2020 08:00:00 8.625 C 8.13 g/m*3 8.63 C 0 km/h
154 11-09-2020 09:00:00 9.45833 C 8.62 g/m*3 9.46 C 0 km/h
155 11-09-2020 10:00:00 11.20833 C 9.55 g/m*3 11.21 C 0 km/h
156 11-09-2020 11:00:00 14.025 C 10.22 g/m*3 14.03 C 0.26667 km/h
157 11-09-2020 12:00:00 17.6 C 9.97 g/m*3 17.6 C 2.93333 km/h
158 11-09-2020 13:00:00 19.86667 C 9.7 g/m*3 19.87 C 5.35833 km/h
159 11-09-2020 14:00:00 21.15 C 10.06 g/m*3 21.15 C 5.09167 km/h
160 11-09-2020 15:00:00 22.44167 C 10.4 g/m*3 22.44 C 6.45833 km/h
161 11-09-2020 16:00:00 23.58333 C 10.59 g/m*3 23.58 C 8.6 km/h
162 11-09-2020 17:00:00 24.6 C 10.8 g/m*3 24.6 C 6.43333 km/h
163 11-09-2020 18:00:00 24.36667 C 11.27 g/m*3 24.37 C 3.075 km/h
164 11-09-2020 19:00:00 21.425 C 11.31 g/m*3 21.43 C 2.80833 km/h
165 11-09-2020 20:00:00 18.3 C 10.65 g/m*3 18.3 C 4.13333 km/h
166 11-09-2020 21:00:00 16.35833 C 10.47 g/m*3 16.36 C 0.53333 km/h
167 11-09-2020 22:00:00 15.04167 C 10.27 g/m*3 15.04 C 0 km/h
168 11-09-2020 23:00:00 13.93333 C 10.07 g/m*3 13.93 C 0 km/h
169 12-09-2020 00:00:00 13.05 C 9.85 g/m*3 13.05 C 0 km/h
170 12-09-2020 01:00:00 12.525 C 9.71 g/m*3 12.53 C 0 km/h
171 12-09-2020 02:00:00 11.975 C 9.53 g/m*3 11.98 C 0 km/h
172 12-09-2020 03:00:00 11.475 C 9.35 g/m*3 11.48 C 0 km/h
173 12-09-2020 04:00:00 10.975 C 9.17 g/m*3 10.98 C 0 km/h
174 12-09-2020 05:00:00 10.525 C 9.03 g/m*3 10.53 C 0 km/h
175 12-09-2020 06:00:00 10.225 C 8.9 g/m*3 10.23 C 0 km/h
Sensor: Nr:Datum:Temp:Abs-Feuchte:Windchill:Wind:
Aussen-T/F 176 12-09-2020 07:00:00 10.16667 C 8.94 g/m*3 10.17 C 0 km/h
177 12-09-2020 08:00:00 10.9 C 9.46 g/m*3 10.9 C 0 km/h
178 12-09-2020 09:00:00 12.625 C 10.36 g/m*3 12.63 C 0.26667 km/h
179 12-09-2020 10:00:00 14.675 C 10.94 g/m*3 14.68 C 0.13333 km/h
180 12-09-2020 11:00:00 17.25 C 11.71 g/m*3 17.25 C 0 km/h
181 12-09-2020 12:00:00 20.15833 C 12.27 g/m*3 20.16 C 2.80833 km/h
182 12-09-2020 13:00:00 24.425 C 11.76 g/m*3 24.43 C 11.15833 km/h
183 12-09-2020 14:00:00 24.90833 C 12.29 g/m*3 24.91 C 6.85 km/h
184 12-09-2020 15:00:00 25.61667 C 12.43 g/m*3 25.62 C 8.6 km/h
185 12-09-2020 16:00:00 25.75 C 12.36 g/m*3 25.75 C 10.475 km/h
186 12-09-2020 17:00:00 26.14167 C 12.76 g/m*3 26.14 C 10.76667 km/h
187 12-09-2020 18:00:00 25.28333 C 12.84 g/m*3 25.28 C 7.23333 km/h
188 12-09-2020 19:00:00 23.03333 C 12.66 g/m*3 23.03 C 1.46667 km/h
189 12-09-2020 20:00:00 19.79167 C 11.85 g/m*3 19.79 C 1.6 km/h
190 12-09-2020 21:00:00 18.49167 C 10.94 g/m*3 18.49 C 1.20833 km/h
191 12-09-2020 22:00:00 17.16667 C 10.49 g/m*3 17.17 C 0.66667 km/h
192 12-09-2020 23:00:00 15.81667 C 10.29 g/m*3 15.82 C 1.06667 km/h
193 13-09-2020 00:00:00 14.36667 C 9.98 g/m*3 14.37 C 0.26667 km/h
194 13-09-2020 01:00:00 13.05 C 9.73 g/m*3 13.05 C 0.13333 km/h
195 13-09-2020 02:00:00 12.375 C 9.55 g/m*3 12.38 C 0.26667 km/h
196 13-09-2020 03:00:00 11.73333 C 9.42 g/m*3 11.73 C 0 km/h
197 13-09-2020 04:00:00 11.35 C 9.32 g/m*3 11.35 C 0 km/h
198 13-09-2020 05:00:00 10.84167 C 9.12 g/m*3 10.84 C 0 km/h
199 13-09-2020 06:00:00 10.35 C 8.92 g/m*3 10.35 C 0 km/h
200 13-09-2020 07:00:00 10.15 C 8.91 g/m*3 10.15 C 0 km/h
Sensor: Nr:Datum:Temp:Abs-Feuchte:Windchill:Wind:
Aussen-T/F 201 13-09-2020 08:00:00 10.66667 C 9.31 g/m*3 10.67 C 0.26667 km/h
202 13-09-2020 09:00:00 11.60833 C 9.88 g/m*3 11.61 C 0 km/h
203 13-09-2020 10:00:00 13.1 C 10.67 g/m*3 13.1 C 0 km/h
204 13-09-2020 11:00:00 15.53333 C 11.27 g/m*3 15.53 C 0.4 km/h
205 13-09-2020 12:00:00 19.05833 C 11.98 g/m*3 19.06 C 2.26667 km/h
206 13-09-2020 13:00:00 21.825 C 11.99 g/m*3 21.83 C 0.53333 km/h
207 13-09-2020 14:00:00 23.725 C 11.78 g/m*3 23.73 C 2.81667 km/h
208 13-09-2020 15:00:00 25.85833 C 11.17 g/m*3 25.86 C 4.14167 km/h
209 13-09-2020 16:00:00 26.83333 C 11.13 g/m*3 26.83 C 5.1 km/h
210 13-09-2020 17:00:00 28.81667 C 11.8 g/m*3 28.82 C 3.86667 km/h
211 13-09-2020 18:00:00 27.46667 C 13.01 g/m*3 27.47 C 2.66667 km/h
212 13-09-2020 19:00:00 23.69167 C 11.87 g/m*3 23.69 C 3.2 km/h
213 13-09-2020 20:00:00 20.53333 C 11.32 g/m*3 20.53 C 1.86667 km/h
214 13-09-2020 21:00:00 18.25 C 10.95 g/m*3 18.25 C 0 km/h
215 13-09-2020 22:00:00 16.55833 C 10.63 g/m*3 16.56 C 0 km/h
216 13-09-2020 23:00:00 15.175 C 10.44 g/m*3 15.18 C 0 km/h
217 14-09-2020 00:00:00 14.325 C 10.28 g/m*3 14.33 C 0 km/h
218 14-09-2020 01:00:00 13.59167 C 10.02 g/m*3 13.59 C 0 km/h
219 14-09-2020 02:00:00 12.875 C 9.83 g/m*3 12.88 C 0 km/h
220 14-09-2020 03:00:00 12.33333 C 9.69 g/m*3 12.33 C 0 km/h
221 14-09-2020 04:00:00 11.64167 C 9.45 g/m*3 11.64 C 0 km/h
222 14-09-2020 05:00:00 11.25833 C 9.33 g/m*3 11.26 C 0 km/h
223 14-09-2020 06:00:00 10.83333 C 9.15 g/m*3 10.83 C 0 km/h
224 14-09-2020 07:00:00 10.725 C 9.19 g/m*3 10.73 C 0 km/h
225 14-09-2020 08:00:00 11.15833 C 9.54 g/m*3 11.16 C 0 km/h
Sensor: Nr:Datum:Temp:Abs-Feuchte:Windchill:Wind:
Aussen-T/F 226 14-09-2020 09:00:00 12.125 C 10.2 g/m*3 12.13 C 0 km/h
227 14-09-2020 10:00:00 13.875 C 11.28 g/m*3 13.88 C 0 km/h
228 14-09-2020 11:00:00 17.325 C 12.59 g/m*3 17.33 C 0 km/h
229 14-09-2020 12:00:00 21.75833 C 13.7 g/m*3 21.76 C 1.075 km/h
230 14-09-2020 13:00:00 25.95833 C 13.95 g/m*3 25.96 C 3.33333 km/h
231 14-09-2020 14:00:00 28.11667 C 13.34 g/m*3 28.12 C 4.01667 km/h
232 14-09-2020 15:00:00 29.625 C 11.66 g/m*3 29.63 C 7.11667 km/h
233 14-09-2020 16:00:00 29.875 C 12.2 g/m*3 29.88 C 4.675 km/h
234 14-09-2020 17:00:00 29.775 C 14.18 g/m*3 29.78 C 1.46667 km/h
235 14-09-2020 18:00:00 30.61667 C 13.35 g/m*3 30.62 C 3.06667 km/h
236 14-09-2020 19:00:00 25.86667 C 11.8 g/m*3 25.87 C 7.39167 km/h
237 14-09-2020 20:00:00 22.39167 C 11.7 g/m*3 22.39 C 2.54167 km/h
238 14-09-2020 21:00:00 19.975 C 12.17 g/m*3 19.98 C 0 km/h
239 14-09-2020 22:00:00 18.525 C 11.98 g/m*3 18.52 C 0 km/h
240 14-09-2020 23:00:00 17.08333 C 11.72 g/m*3 17.08 C 0 km/h
241 15-09-2020 00:00:00 16.23333 C 11.47 g/m*3 16.23 C 0 km/h
242 15-09-2020 01:00:00 15.45833 C 11.28 g/m*3 15.46 C 0 km/h
243 15-09-2020 02:00:00 14.9 C 11.08 g/m*3 14.9 C 0 km/h
244 15-09-2020 03:00:00 14.15833 C 10.84 g/m*3 14.16 C 0 km/h
245 15-09-2020 04:00:00 13.54167 C 10.59 g/m*3 13.54 C 0 km/h
246 15-09-2020 05:00:00 13.10833 C 10.5 g/m*3 13.11 C 0 km/h
247 15-09-2020 06:00:00 12.50833 C 10.19 g/m*3 12.51 C 0 km/h
248 15-09-2020 07:00:00 12.2 C 10.11 g/m*3 12.2 C 0 km/h
249 15-09-2020 08:00:00 12.53333 C 10.43 g/m*3 12.53 C 0 km/h
250 15-09-2020 09:00:00 13.69167 C 11.29 g/m*3 13.69 C 0 km/h
Sensor: Nr:Datum:Temp:Abs-Feuchte:Windchill:Wind:
Aussen-T/F 251 15-09-2020 10:00:00 15.39167 C 12.46 g/m*3 15.39 C 0 km/h
252 15-09-2020 11:00:00 18.00833 C 13.23 g/m*3 18.01 C 0 km/h
253 15-09-2020 12:00:00 21.76667 C 14.25 g/m*3 21.77 C 0 km/h
254 15-09-2020 13:00:00 25.79167 C 13.96 g/m*3 25.79 C 1.6 km/h
255 15-09-2020 14:00:00 29.24167 C 12.37 g/m*3 29.24 C 4.13333 km/h
256 15-09-2020 15:00:00 30.65833 C 10.87 g/m*3 30.66 C 5.225 km/h
257 15-09-2020 16:00:00 31.5 C 9.92 g/m*3 31.5 C 4.93333 km/h
258 15-09-2020 17:00:00 33.19167 C 10.43 g/m*3 33.19 C 4.53333 km/h
259 15-09-2020 18:00:00 31.875 C 12.58 g/m*3 31.88 C 3.73333 km/h
260 15-09-2020 19:00:00 27.65833 C 11.92 g/m*3 27.66 C 3.33333 km/h
261 15-09-2020 20:00:00 24.3 C 11.82 g/m*3 24.3 C 4.4 km/h
262 15-09-2020 21:00:00 22.05833 C 12.2 g/m*3 22.06 C 0.13333 km/h
263 15-09-2020 22:00:00 20.48333 C 12.41 g/m*3 20.48 C 0 km/h
264 15-09-2020 23:00:00 18.90833 C 12.33 g/m*3 18.91 C 0 km/h
265 16-09-2020 00:00:00 18.13333 C 12.04 g/m*3 18.13 C 0 km/h
266 16-09-2020 01:00:00 17.29167 C 11.8 g/m*3 17.29 C 0 km/h
267 16-09-2020 02:00:00 16.225 C 11.64 g/m*3 16.23 C 0 km/h
268 16-09-2020 03:00:00 15.49167 C 11.43 g/m*3 15.49 C 0 km/h
269 16-09-2020 04:00:00 14.95 C 11.31 g/m*3 14.95 C 0 km/h
270 16-09-2020 05:00:00 14.5 C 11.19 g/m*3 14.5 C 0.4 km/h
271 16-09-2020 06:00:00 14.25833 C 11.14 g/m*3 14.26 C 0 km/h
272 16-09-2020 07:00:00 14.1 C 11.15 g/m*3 14.1 C 0.26667 km/h
273 16-09-2020 08:00:00 14.51667 C 11.45 g/m*3 14.52 C 0 km/h
274 16-09-2020 09:00:00 15.54167 C 12.13 g/m*3 15.54 C 0 km/h
275 16-09-2020 10:00:00 18.19167 C 13.13 g/m*3 18.19 C 0.26667 km/h
Sensor: Nr:Datum:Temp:Abs-Feuchte:Windchill:Wind:
Aussen-T/F 276 16-09-2020 11:00:00 20.775 C 13.49 g/m*3 20.78 C 0.13333 km/h
277 16-09-2020 12:00:00 23.24167 C 14 g/m*3 23.24 C 0 km/h
278 16-09-2020 13:00:00 24.46667 C 14.33 g/m*3 24.47 C 0.13333 km/h
279 16-09-2020 14:00:00 26.5 C 14.56 g/m*3 26.5 C 1.6 km/h
280 16-09-2020 15:00:00 28.38333 C 14.58 g/m*3 28.38 C 1.46667 km/h
281 16-09-2020 16:00:00 30.15 C 12.08 g/m*3 30.15 C 12.35833 km/h
282 16-09-2020 17:00:00 28.55833 C 14.56 g/m*3 28.56 C 13.96667 km/h
283 16-09-2020 18:00:00 26.775 C 15.19 g/m*3 26.78 C 13.56667 km/h
284 16-09-2020 19:00:00 25.28333 C 15.03 g/m*3 25.28 C 5.63333 km/h
285 16-09-2020 20:00:00 22.91667 C 14.49 g/m*3 22.92 C 2.53333 km/h
286 16-09-2020 21:00:00 22.29167 C 14.31 g/m*3 22.29 C 4.69167 km/h
287 16-09-2020 22:00:00 22.30833 C 14.01 g/m*3 22.31 C 7.66667 km/h
288 16-09-2020 23:00:00 21.24167 C 13.41 g/m*3 21.24 C 3.75 km/h
289 17-09-2020 00:00:00 20.75 C 13.12 g/m*3 20.75 C 8.05833 km/h
290 17-09-2020 01:00:00 20.09167 C 12.51 g/m*3 20.09 C 6.71667 km/h
291 17-09-2020 02:00:00 18.75 C 12.07 g/m*3 18.75 C 5.23333 km/h
292 17-09-2020 03:00:00 17.31667 C 11.82 g/m*3 17.32 C 2.8 km/h
293 17-09-2020 04:00:00 17.36667 C 11.98 g/m*3 17.37 C 8.74167 km/h
294 17-09-2020 05:00:00 17.125 C 11.71 g/m*3 17.13 C 7.375 km/h
295 17-09-2020 06:00:00 16.86667 C 11.44 g/m*3 16.87 C 6.15833 km/h
296 17-09-2020 07:00:00 16.63333 C 11.36 g/m*3 16.63 C 5.89167 km/h
297 17-09-2020 08:00:00 16.08333 C 10.89 g/m*3 16.08 C 9.425 km/h
298 17-09-2020 09:00:00 15.66667 C 10.46 g/m*3 15.67 C 8.06667 km/h
299 17-09-2020 10:00:00 16.05 C 9.52 g/m*3 16.05 C 6.71667 km/h
300 17-09-2020 11:00:00 16.4 C 9.11 g/m*3 16.4 C 10.48333 km/h
Sensor: Nr:Datum:Temp:Abs-Feuchte:Windchill:Wind:
Aussen-T/F 301 17-09-2020 12:00:00 17.575 C 9.16 g/m*3 17.58 C 12.76667 km/h
302 17-09-2020 13:00:00 18.81667 C 8.75 g/m*3 18.82 C 14.23333 km/h
303 17-09-2020 14:00:00 20.15833 C 7.94 g/m*3 20.16 C 13.29167 km/h
304 17-09-2020 15:00:00 20.91667 C 7.64 g/m*3 20.92 C 12.5 km/h
305 17-09-2020 16:00:00 21.61667 C 7.28 g/m*3 21.62 C 14.63333 km/h
306 17-09-2020 17:00:00 22.10833 C 7.36 g/m*3 22.11 C 15.3 km/h
307 17-09-2020 18:00:00 21.83333 C 7.63 g/m*3 21.83 C 10.33333 km/h
308 17-09-2020 19:00:00 19.575 C 8.01 g/m*3 19.58 C 2.40833 km/h
309 17-09-2020 20:00:00 15.91667 C 8.08 g/m*3 15.92 C 1.34167 km/h
310 17-09-2020 21:00:00 14.69167 C 8.1 g/m*3 14.69 C 1.6 km/h
311 17-09-2020 22:00:00 14.66667 C 8.24 g/m*3 14.67 C 2.00833 km/h
312 17-09-2020 23:00:00 13.575 C 8.15 g/m*3 13.58 C 1.475 km/h
313 18-09-2020 00:00:00 12.5 C 8.11 g/m*3 12.5 C 0.53333 km/h
314 18-09-2020 01:00:00 12.25833 C 8.1 g/m*3 12.26 C 2.41667 km/h
315 18-09-2020 02:00:00 12.55833 C 7.99 g/m*3 12.56 C 3.46667 km/h
316 18-09-2020 03:00:00 10.925 C 7.75 g/m*3 10.93 C 3.46667 km/h
317 18-09-2020 04:00:00 10.14167 C 7.61 g/m*3 10.14 C 4.13333 km/h
318 18-09-2020 05:00:00 9.55833 C 7.49 g/m*3 9.56 C 1.33333 km/h
319 18-09-2020 06:00:00 9.28333 C 7.45 g/m*3 9.28 C 0.53333 km/h
320 18-09-2020 07:00:00 9.18333 C 7.51 g/m*3 9.18 C 1.86667 km/h
321 18-09-2020 08:00:00 10.18333 C 7.93 g/m*3 10.18 C 0 km/h
322 18-09-2020 09:00:00 11.2 C 8.2 g/m*3 11.2 C 1.86667 km/h
323 18-09-2020 10:00:00 13.375 C 8.41 g/m*3 13.38 C 5.21667 km/h
324 18-09-2020 11:00:00 16.19167 C 8.82 g/m*3 16.19 C 8.33333 km/h
325 18-09-2020 12:00:00 18.7 C 9.38 g/m*3 18.7 C 8.6 km/h
Sensor: Nr:Datum:Temp:Abs-Feuchte:Windchill:Wind:
Aussen-T/F 326 18-09-2020 13:00:00 21.04167 C 10.18 g/m*3 21.04 C 12.36667 km/h
327 18-09-2020 14:00:00 22.58333 C 10.24 g/m*3 22.58 C 13.83333 km/h
328 18-09-2020 15:00:00 23.04167 C 9.98 g/m*3 23.04 C 13.83333 km/h
329 18-09-2020 16:00:00 23.66667 C 9.91 g/m*3 23.67 C 12.1 km/h
330 18-09-2020 17:00:00 24.73333 C 9.77 g/m*3 24.73 C 8.46667 km/h
331 18-09-2020 18:00:00 24.55 C 9.5 g/m*3 24.55 C 6.58333 km/h
332 18-09-2020 19:00:00 21.19167 C 9.55 g/m*3 21.19 C 4.40833 km/h
333 18-09-2020 20:00:00 16.91667 C 9.06 g/m*3 16.92 C 3.86667 km/h
334 18-09-2020 21:00:00 15.46667 C 8.63 g/m*3 15.47 C 5.06667 km/h
335 18-09-2020 22:00:00 14.61667 C 8.02 g/m*3 14.62 C 0.66667 km/h
336 18-09-2020 23:00:00 14.05833 C 7.91 g/m*3 14.06 C 2.8 km/h
337 19-09-2020 00:00:00 13.54167 C 7.74 g/m*3 13.54 C 2.53333 km/h
338 19-09-2020 01:00:00 12.625 C 7.61 g/m*3 12.63 C 4 km/h
339 19-09-2020 02:00:00 11.63333 C 7.47 g/m*3 11.63 C 1.6 km/h
340 19-09-2020 03:00:00 10.375 C 7.31 g/m*3 10.38 C 0.93333 km/h
341 19-09-2020 04:00:00 9.625 C 7.21 g/m*3 9.63 C 0 km/h
342 19-09-2020 05:00:00 8.825 C 7.08 g/m*3 8.82 C 0 km/h
343 19-09-2020 06:00:00 8.175 C 7.04 g/m*3 8.18 C 0 km/h
344 19-09-2020 07:00:00 7.68333 C 7.04 g/m*3 7.68 C 0 km/h
345 19-09-2020 08:00:00 7.94167 C 7.32 g/m*3 7.94 C 0 km/h
346 19-09-2020 09:00:00 8.91667 C 7.76 g/m*3 8.92 C 0 km/h
347 19-09-2020 10:00:00 11.41667 C 8.33 g/m*3 11.42 C 0.8 km/h
348 19-09-2020 11:00:00 15.09167 C 8.6 g/m*3 15.09 C 2.53333 km/h
349 19-09-2020 12:00:00 19.15 C 8.7 g/m*3 19.15 C 7.93333 km/h
350 19-09-2020 13:00:00 21.125 C 8.61 g/m*3 21.13 C 6.16667 km/h
Sensor: Nr:Datum:Temp:Abs-Feuchte:Windchill:Wind:
Aussen-T/F 351 19-09-2020 14:00:00 23.24167 C 8.63 g/m*3 23.24 C 8.46667 km/h
352 19-09-2020 15:00:00 24.33333 C 8.48 g/m*3 24.33 C 8.31667 km/h
353 19-09-2020 16:00:00 25.29167 C 8.19 g/m*3 25.29 C 9.41667 km/h
354 19-09-2020 17:00:00 26.2 C 8.17 g/m*3 26.2 C 8.34167 km/h
355 19-09-2020 18:00:00 26.39167 C 8.38 g/m*3 26.39 C 3.2 km/h
356 19-09-2020 19:00:00 21.7 C 8.12 g/m*3 21.7 C 2.13333 km/h
357 19-09-2020 20:00:00 17.99167 C 7.84 g/m*3 17.99 C 4.4 km/h
358 19-09-2020 21:00:00 16.35833 C 7.92 g/m*3 16.36 C 4.93333 km/h
359 19-09-2020 22:00:00 15.54167 C 8.16 g/m*3 15.54 C 1.86667 km/h
360 19-09-2020 23:00:00 14.425 C 8.17 g/m*3 14.43 C 0 km/h
361 20-09-2020 00:00:00 13.7 C 8.25 g/m*3 13.7 C 0.13333 km/h
362 20-09-2020 01:00:00 12.70833 C 8.27 g/m*3 12.71 C 0 km/h
363 20-09-2020 02:00:00 11.76667 C 7.98 g/m*3 11.77 C 0 km/h
364 20-09-2020 03:00:00 10.6 C 7.73 g/m*3 10.6 C 0 km/h
365 20-09-2020 04:00:00 9.84167 C 7.5 g/m*3 9.84 C 0 km/h
366 20-09-2020 05:00:00 9.49167 C 7.6 g/m*3 9.49 C 0 km/h
367 20-09-2020 06:00:00 8.96667 C 7.46 g/m*3 8.97 C 0 km/h
368 20-09-2020 07:00:00 8.3 C 7.32 g/m*3 8.3 C 0 km/h
369 20-09-2020 08:00:00 8.71667 C 7.73 g/m*3 8.72 C 0 km/h
370 20-09-2020 09:00:00 9.625 C 8.21 g/m*3 9.63 C 0 km/h
371 20-09-2020 10:00:00 11.55833 C 9 g/m*3 11.56 C 0 km/h
372 20-09-2020 11:00:00 14.05833 C 9.46 g/m*3 14.06 C 0 km/h
373 20-09-2020 12:00:00 18.15833 C 9.75 g/m*3 18.16 C 1.06667 km/h
374 20-09-2020 13:00:00 21.14167 C 9.27 g/m*3 21.14 C 4.53333 km/h
375 20-09-2020 14:00:00 22.81667 C 8.88 g/m*3 22.82 C 3.6 km/h
Sensor: Nr:Datum:Temp:Abs-Feuchte:Windchill:Wind:
Aussen-T/F 376 20-09-2020 15:00:00 22.975 C 9.78 g/m*3 22.98 C 1.33333 km/h
377 20-09-2020 16:00:00 22.65 C 9.75 g/m*3 22.65 C 1.06667 km/h
378 20-09-2020 17:00:00 23.95833 C 9.93 g/m*3 23.96 C 1.86667 km/h
379 20-09-2020 18:00:00 21.43333 C 9.47 g/m*3 21.43 C 5.06667 km/h
380 20-09-2020 19:00:00 18.625 C 8.91 g/m*3 18.63 C 3.6 km/h
381 20-09-2020 20:00:00 15.78333 C 8.29 g/m*3 15.78 C 1.33333 km/h
382 20-09-2020 21:00:00 14.3 C 8.13 g/m*3 14.3 C 0 km/h
383 20-09-2020 22:00:00 13.075 C 8.3 g/m*3 13.08 C 0 km/h
384 20-09-2020 23:00:00 11.68333 C 8.05 g/m*3 11.68 C 0 km/h
385 21-09-2020 00:00:00 10.94167 C 7.88 g/m*3 10.94 C 0 km/h
386 21-09-2020 01:00:00 10.25833 C 7.8 g/m*3 10.26 C 0 km/h
387 21-09-2020 02:00:00 9.54167 C 7.67 g/m*3 9.54 C 0 km/h
388 21-09-2020 03:00:00 9.03333 C 7.62 g/m*3 9.03 C 0 km/h
389 21-09-2020 04:00:00 8.55 C 7.54 g/m*3 8.55 C 0 km/h
390 21-09-2020 05:00:00 8.15 C 7.44 g/m*3 8.15 C 0 km/h
391 21-09-2020 06:00:00 7.79167 C 7.35 g/m*3 7.79 C 0 km/h
392 21-09-2020 07:00:00 7.34167 C 7.22 g/m*3 7.34 C 0 km/h
393 21-09-2020 08:00:00 7.525 C 7.4 g/m*3 7.53 C 0 km/h
394 21-09-2020 09:00:00 8.475 C 7.84 g/m*3 8.48 C 0 km/h
395 21-09-2020 10:00:00 10.075 C 8.54 g/m*3 10.07 C 0 km/h
396 21-09-2020 11:00:00 13.05833 C 9.27 g/m*3 13.06 C 0 km/h
397 21-09-2020 12:00:00 17.375 C 10.1 g/m*3 17.38 C 0 km/h
398 21-09-2020 13:00:00 20.58333 C 9.88 g/m*3 20.58 C 1.73333 km/h
399 21-09-2020 14:00:00 23.44167 C 9.01 g/m*3 23.44 C 7.78333 km/h
400 21-09-2020 15:00:00 24.26667 C 8.56 g/m*3 24.27 C 5.21667 km/h
Sensor: Nr:Datum:Temp:Abs-Feuchte:Windchill:Wind:
Aussen-T/F 401 21-09-2020 16:00:00 24.63333 C 8.44 g/m*3 24.63 C 5.9 km/h
402 21-09-2020 17:00:00 26.25833 C 8.64 g/m*3 26.26 C 2.93333 km/h
403 21-09-2020 18:00:00 25.7 C 9.36 g/m*3 25.7 C 3.06667 km/h
404 21-09-2020 19:00:00 21.13333 C 8.71 g/m*3 21.13 C 5.73333 km/h
405 21-09-2020 20:00:00 17.55833 C 8.53 g/m*3 17.56 C 0.93333 km/h
406 21-09-2020 21:00:00 15.46667 C 8.53 g/m*3 15.47 C 0 km/h
407 21-09-2020 22:00:00 13.98333 C 8.46 g/m*3 13.98 C 0 km/h
408 21-09-2020 23:00:00 12.9 C 8.51 g/m*3 12.9 C 0 km/h
409 22-09-2020 00:00:00 11.80833 C 8.37 g/m*3 11.81 C 0 km/h
410 22-09-2020 01:00:00 11.33333 C 8.3 g/m*3 11.33 C 0 km/h
411 22-09-2020 02:00:00 10.66667 C 8.11 g/m*3 10.67 C 0 km/h
412 22-09-2020 03:00:00 9.80833 C 7.97 g/m*3 9.81 C 0 km/h
413 22-09-2020 04:00:00 9.34167 C 7.89 g/m*3 9.34 C 0 km/h
414 22-09-2020 05:00:00 8.98333 C 7.85 g/m*3 8.98 C 0 km/h
415 22-09-2020 06:00:00 8.51667 C 7.72 g/m*3 8.52 C 0 km/h
416 22-09-2020 07:00:00 8.2 C 7.65 g/m*3 8.2 C 0 km/h
417 22-09-2020 08:00:00 8.54167 C 7.93 g/m*3 8.54 C 0 km/h
418 22-09-2020 09:00:00 9.45833 C 8.44 g/m*3 9.46 C 0 km/h
419 22-09-2020 10:00:00 11.10833 C 9.2 g/m*3 11.11 C 0 km/h
420 22-09-2020 11:00:00 14.18333 C 10.12 g/m*3 14.18 C 0 km/h
421 22-09-2020 12:00:00 18.30833 C 11.09 g/m*3 18.31 C 0.13333 km/h
422 22-09-2020 13:00:00 22.025 C 10.46 g/m*3 22.03 C 4.29167 km/h
423 22-09-2020 14:00:00 25.39167 C 9.49 g/m*3 25.39 C 11.15833 km/h
424 22-09-2020 15:00:00 26.09167 C 9.07 g/m*3 26.09 C 11.025 km/h
425 22-09-2020 16:00:00 26.51667 C 8.75 g/m*3 26.52 C 11.3 km/h
Sensor: Nr:Datum:Temp:Abs-Feuchte:Windchill:Wind:
Aussen-T/F 426 22-09-2020 17:00:00 27.45833 C 9.39 g/m*3 27.46 C 8.85833 km/h
427 22-09-2020 18:00:00 27.34167 C 10.25 g/m*3 27.34 C 4.54167 km/h
428 22-09-2020 19:00:00 22.64167 C 10.15 g/m*3 22.64 C 6.14167 km/h
429 22-09-2020 20:00:00 19.275 C 9.9 g/m*3 19.27 C 4.26667 km/h
430 22-09-2020 21:00:00 17.68333 C 9.7 g/m*3 17.68 C 0.66667 km/h
431 22-09-2020 22:00:00 16.43333 C 9.49 g/m*3 16.43 C 0.66667 km/h
432 22-09-2020 23:00:00 15.40833 C 9.31 g/m*3 15.41 C 0.66667 km/h
433 23-09-2020 00:00:00 14.45833 C 9.15 g/m*3 14.46 C 0.13333 km/h
434 23-09-2020 01:00:00 14.04167 C 9.23 g/m*3 14.04 C 0.53333 km/h
435 23-09-2020 02:00:00 14.49167 C 9.4 g/m*3 14.49 C 0.93333 km/h
436 23-09-2020 03:00:00 13.925 C 9.36 g/m*3 13.93 C 0 km/h
437 23-09-2020 04:00:00 14.06667 C 9.45 g/m*3 14.07 C 0 km/h
438 23-09-2020 05:00:00 12.775 C 8.94 g/m*3 12.78 C 0.13333 km/h
439 23-09-2020 06:00:00 12.125 C 8.85 g/m*3 12.13 C 0.4 km/h
440 23-09-2020 07:00:00 13.225 C 9.12 g/m*3 13.23 C 1.46667 km/h
441 23-09-2020 08:00:00 14.025 C 9.27 g/m*3 14.03 C 1.33333 km/h
442 23-09-2020 09:00:00 14.29167 C 9.33 g/m*3 14.29 C 3.89167 km/h
443 23-09-2020 10:00:00 17.35833 C 9.01 g/m*3 17.36 C 11.16667 km/h
444 23-09-2020 11:00:00 19.13333 C 9.62 g/m*3 19.13 C 10.35833 km/h
445 23-09-2020 12:00:00 20.29167 C 10.55 g/m*3 20.29 C 14.1 km/h
446 23-09-2020 13:00:00 21.65 C 10.84 g/m*3 21.65 C 11.41667 km/h
447 23-09-2020 14:00:00 23.03333 C 11.07 g/m*3 23.03 C 12.1 km/h
448 23-09-2020 15:00:00 23.40833 C 11.2 g/m*3 23.41 C 11.56667 km/h
449 23-09-2020 16:00:00 23.63333 C 11.24 g/m*3 23.63 C 11.29167 km/h
450 23-09-2020 17:00:00 23.78333 C 11.28 g/m*3 23.78 C 9.93333 km/h
Sensor: Nr:Datum:Temp:Abs-Feuchte:Windchill:Wind:
Aussen-T/F 451 23-09-2020 18:00:00 22.60833 C 11.1 g/m*3 22.61 C 5.225 km/h
452 23-09-2020 19:00:00 19.48333 C 11.16 g/m*3 19.48 C 1.46667 km/h
453 23-09-2020 20:00:00 17.35833 C 11.11 g/m*3 17.36 C 1.33333 km/h
454 23-09-2020 21:00:00 17.51667 C 11.47 g/m*3 17.52 C 2.54167 km/h
455 23-09-2020 22:00:00 17.64167 C 11.64 g/m*3 17.64 C 0.53333 km/h
456 23-09-2020 23:00:00 17.50833 C 11.75 g/m*3 17.51 C 1.6 km/h
457 24-09-2020 00:00:00 17.73333 C 11.75 g/m*3 17.73 C 4.15833 km/h
458 24-09-2020 01:00:00 18.28333 C 11.99 g/m*3 18.28 C 4.825 km/h
459 24-09-2020 02:00:00 17.56667 C 12.81 g/m*3 17.57 C 4.825 km/h
460 24-09-2020 03:00:00 16.18333 C 12.66 g/m*3 16.18 C 1.2 km/h
461 24-09-2020 04:00:00 16.03333 C 12.81 g/m*3 16.03 C 1.86667 km/h
462 24-09-2020 05:00:00 15.95 C 12.75 g/m*3 15.95 C 6.975 km/h
463 24-09-2020 06:00:00 14.54167 C 10.71 g/m*3 14.54 C 10.08333 km/h
464 24-09-2020 07:00:00 12.025 C 9.55 g/m*3 12.03 C 6.56667 km/h
465 24-09-2020 08:00:00 12.25 C 9.62 g/m*3 12.25 C 8.05833 km/h
466 24-09-2020 09:00:00 12.63333 C 9.51 g/m*3 12.63 C 10.88333 km/h
467 24-09-2020 10:00:00 13.7 C 9.32 g/m*3 13.7 C 12.23333 km/h
468 24-09-2020 11:00:00 14.74167 C 9.1 g/m*3 14.74 C 12.63333 km/h
469 24-09-2020 12:00:00 16.88333 C 9.21 g/m*3 16.88 C 11.16667 km/h
470 24-09-2020 13:00:00 17.73333 C 9.06 g/m*3 17.73 C 15.16667 km/h
471 24-09-2020 14:00:00 18.99167 C 9.08 g/m*3 18.99 C 14.36667 km/h
472 24-09-2020 15:00:00 19.575 C 9.29 g/m*3 19.58 C 9.80833 km/h
473 24-09-2020 16:00:00 19.71667 C 9.49 g/m*3 19.72 C 7.25833 km/h
474 24-09-2020 17:00:00 19.775 C 9.88 g/m*3 19.77 C 4.53333 km/h
475 24-09-2020 18:00:00 18.85833 C 10.63 g/m*3 18.86 C 2.14167 km/h
Sensor: Nr:Datum:Temp:Abs-Feuchte:Windchill:Wind:
Aussen-T/F 476 24-09-2020 19:00:00 17.05 C 11.02 g/m*3 17.05 C 2.26667 km/h
477 24-09-2020 20:00:00 16.075 C 10.86 g/m*3 16.08 C 2.26667 km/h
478 24-09-2020 21:00:00 15.05 C 10.64 g/m*3 15.05 C 1.2 km/h
479 24-09-2020 22:00:00 14.40833 C 10.66 g/m*3 14.41 C 0.93333 km/h
480 24-09-2020 23:00:00 13.76667 C 10.49 g/m*3 13.77 C 0.93333 km/h
481 25-09-2020 00:00:00 13.675 C 10.62 g/m*3 13.68 C 0.13333 km/h
482 25-09-2020 01:00:00 13.925 C 10.79 g/m*3 13.93 C 0.93333 km/h
483 25-09-2020 02:00:00 13.73333 C 10.52 g/m*3 13.73 C 10.05 km/h
484 25-09-2020 03:00:00 12.15 C 9.83 g/m*3 12.15 C 8.59167 km/h
485 25-09-2020 04:00:00 11.275 C 9.42 g/m*3 11.28 C 3.46667 km/h
486 25-09-2020 05:00:00 10.76667 C 9.2 g/m*3 10.77 C 4.40833 km/h
487 25-09-2020 06:00:00 10.50833 C 8.98 g/m*3 10.16 C 5.61667 km/h
488 25-09-2020 07:00:00 9.875 C 8.53 g/m*3 9.88 C 4.55833 km/h
489 25-09-2020 08:00:00 9.525 C 8.33 g/m*3 9.53 C 2.40833 km/h
490 25-09-2020 09:00:00 10.25833 C 8.22 g/m*3 10.26 C 2.8 km/h
491 25-09-2020 10:00:00 11.35 C 8.39 g/m*3 11.35 C 3.875 km/h
492 25-09-2020 11:00:00 12.40833 C 8.49 g/m*3 12.41 C 8.6 km/h
493 25-09-2020 12:00:00 13.21667 C 8.35 g/m*3 13.22 C 11.96667 km/h
494 25-09-2020 13:00:00 13.54167 C 8.25 g/m*3 13.54 C 10.88333 km/h
495 25-09-2020 14:00:00 13.03333 C 8.97 g/m*3 13.03 C 3.61667 km/h
496 25-09-2020 15:00:00 13.65 C 9.26 g/m*3 13.65 C 3.6 km/h
497 25-09-2020 16:00:00 14.23333 C 9.1 g/m*3 14.23 C 7.125 km/h
498 25-09-2020 17:00:00 14.25 C 8.79 g/m*3 14.25 C 7.525 km/h
499 25-09-2020 18:00:00 12.89167 C 8.7 g/m*3 12.89 C 9.93333 km/h
500 25-09-2020 19:00:00 11.88333 C 8.54 g/m*3 11.88 C 6.3 km/h
Sensor: Nr:Datum:Temp:Abs-Feuchte:Windchill:Wind:
Aussen-T/F 501 25-09-2020 20:00:00 11.75833 C 8.49 g/m*3 11.76 C 6.7 km/h
502 25-09-2020 21:00:00 11.53333 C 8.06 g/m*3 11.53 C 7.50833 km/h
503 25-09-2020 22:00:00 11.425 C 8.07 g/m*3 11.43 C 8.74167 km/h
504 25-09-2020 23:00:00 11.20833 C 8.14 g/m*3 11.21 C 10.35833 km/h
505 26-09-2020 00:00:00 10.7 C 8.06 g/m*3 8.94 C 13.7 km/h
506 26-09-2020 01:00:00 10.61667 C 7.93 g/m*3 9.05 C 12.1 km/h
507 26-09-2020 02:00:00 10.5 C 7.9 g/m*3 9.04 C 11.15833 km/h
508 26-09-2020 03:00:00 10.05 C 7.82 g/m*3 7.8 C 16.5 km/h
509 26-09-2020 04:00:00 9.81667 C 7.59 g/m*3 7.28 C 18.63333 km/h
510 26-09-2020 05:00:00 9.73333 C 7.39 g/m*3 7.07 C 19.7 km/h
511 26-09-2020 06:00:00 9.65833 C 7.53 g/m*3 6.92 C 20.23333 km/h
512 26-09-2020 07:00:00 9.425 C 7.79 g/m*3 7.37 C 13.7 km/h
513 26-09-2020 08:00:00 9.31667 C 8.14 g/m*3 7.78 C 10.20833 km/h
514 26-09-2020 09:00:00 9.9 C 8.56 g/m*3 8.79 C 8.46667 km/h
515 26-09-2020 10:00:00 10.91667 C 8.9 g/m*3 9.85 C 9.275 km/h
516 26-09-2020 11:00:00 11.58333 C 9.14 g/m*3 11.58 C 7.38333 km/h
517 26-09-2020 12:00:00 12.04167 C 9.06 g/m*3 12.04 C 11.55 km/h
518 26-09-2020 13:00:00 11.48333 C 9.45 g/m*3 11.48 C 5.35833 km/h
519 26-09-2020 14:00:00 11.69167 C 9.47 g/m*3 11.69 C 10.74167 km/h
520 26-09-2020 15:00:00 11.375 C 9.32 g/m*3 11.38 C 11.69167 km/h
521 26-09-2020 16:00:00 10.94167 C 9.01 g/m*3 9.5 C 11.68333 km/h
522 26-09-2020 17:00:00 10.9 C 8.97 g/m*3 9.85 C 9.15833 km/h
523 26-09-2020 18:00:00 10.81667 C 9.08 g/m*3 10.55 C 5.48333 km/h
524 26-09-2020 19:00:00 10.68333 C 9.04 g/m*3 10.68 C 4.95833 km/h
525 26-09-2020 20:00:00 10.36667 C 8.98 g/m*3 10.37 C 4.54167 km/h
Sensor: Nr:Datum:Temp:Abs-Feuchte:Windchill:Wind:
Aussen-T/F 526 26-09-2020 21:00:00 10.2 C 8.99 g/m*3 10.2 C 2.26667 km/h
527 26-09-2020 22:00:00 10.075 C 8.97 g/m*3 10.07 C 2.275 km/h
528 26-09-2020 23:00:00 9.85 C 8.84 g/m*3 9.85 C 3.2 km/h
529 27-09-2020 00:00:00 9.375 C 8.58 g/m*3 9.38 C 4.66667 km/h
530 27-09-2020 01:00:00 8.88333 C 8.35 g/m*3 7.77 C 7.65 km/h
531 27-09-2020 02:00:00 8.91667 C 8.42 g/m*3 7.55 C 8.85833 km/h
532 27-09-2020 03:00:00 9.325 C 8.64 g/m*3 8.92 C 5.225 km/h
533 27-09-2020 04:00:00 9.50833 C 8.74 g/m*3 9.51 C 1.74167 km/h
534 27-09-2020 05:00:00 9.6 C 8.79 g/m*3 9.6 C 0.8 km/h
535 27-09-2020 06:00:00 9.6 C 8.79 g/m*3 9.6 C 0.26667 km/h
536 27-09-2020 07:00:00 9.6 C 8.79 g/m*3 9.6 C 0.26667 km/h
537 27-09-2020 08:00:00 9.8 C 8.96 g/m*3 9.8 C 1.46667 km/h
538 27-09-2020 09:00:00 10.59167 C 9.43 g/m*3 10.59 C 2.13333 km/h
539 27-09-2020 10:00:00 11.24167 C 9.75 g/m*3 11.24 C 2 km/h
540 27-09-2020 11:00:00 12.025 C 9.89 g/m*3 12.03 C 5.075 km/h
541 27-09-2020 12:00:00 12.61667 C 9.85 g/m*3 12.62 C 5.48333 km/h
542 27-09-2020 13:00:00 13.30833 C 10 g/m*3 13.31 C 6.71667 km/h
543 27-09-2020 14:00:00 13.69167 C 9.59 g/m*3 13.69 C 6.41667 km/h
544 27-09-2020 15:00:00 13.39167 C 9.35 g/m*3 13.39 C 3.2 km/h
545 27-09-2020 16:00:00 13.13333 C 9.5 g/m*3 13.13 C 1.6 km/h
546 27-09-2020 17:00:00 13.1 C 9.8 g/m*3 13.1 C 0 km/h
547 27-09-2020 18:00:00 12.39167 C 9.7 g/m*3 12.39 C 2.13333 km/h
548 27-09-2020 19:00:00 11.33333 C 9.22 g/m*3 11.33 C 2.4 km/h
549 27-09-2020 20:00:00 10.89167 C 9.12 g/m*3 10.89 C 2 km/h
550 27-09-2020 21:00:00 10.74167 C 9.14 g/m*3 10.74 C 1.46667 km/h
Sensor: Nr:Datum:Temp:Abs-Feuchte:Windchill:Wind:
Aussen-T/F 551 27-09-2020 22:00:00 10.65833 C 9.11 g/m*3 10.66 C 0.26667 km/h
552 27-09-2020 23:00:00 10.44167 C 9.06 g/m*3 10.44 C 1.46667 km/h
553 28-09-2020 00:00:00 10.40833 C 9.06 g/m*3 10.41 C 1.33333 km/h
554 28-09-2020 01:00:00 10.5 C 9.12 g/m*3 10.5 C 0.66667 km/h
555 28-09-2020 02:00:00 10.39167 C 9.05 g/m*3 10.39 C 1.33333 km/h
556 28-09-2020 03:00:00 10.20833 C 8.97 g/m*3 10.21 C 0 km/h
557 28-09-2020 04:00:00 10.15833 C 8.98 g/m*3 10.16 C 0.4 km/h
558 28-09-2020 05:00:00 10.11667 C 8.94 g/m*3 10.12 C 0.4 km/h
559 28-09-2020 06:00:00 10.125 C 8.93 g/m*3 10.13 C 0.66667 km/h
560 28-09-2020 07:00:00 10.075 C 8.86 g/m*3 10.07 C 0.26667 km/h
561 28-09-2020 08:00:00 10.29167 C 9 g/m*3 10.29 C 0 km/h
562 28-09-2020 09:00:00 10.79167 C 9.07 g/m*3 10.79 C 0.4 km/h
563 28-09-2020 10:00:00 11.89167 C 9.08 g/m*3 11.89 C 2.66667 km/h
564 28-09-2020 11:00:00 12.98333 C 9.14 g/m*3 12.98 C 4.95 km/h
565 28-09-2020 12:00:00 13.725 C 9.11 g/m*3 13.73 C 4.41667 km/h
566 28-09-2020 13:00:00 13.81667 C 9.36 g/m*3 13.82 C 5.775 km/h
567 28-09-2020 14:00:00 14.01667 C 9.42 g/m*3 14.02 C 4.025 km/h
568 28-09-2020 15:00:00 14.24167 C 9.13 g/m*3 14.24 C 4.95833 km/h
569 28-09-2020 16:00:00 14 C 9.14 g/m*3 14 C 6.7 km/h
570 28-09-2020 17:00:00 13.55833 C 9.11 g/m*3 13.56 C 6.025 km/h
571 28-09-2020 18:00:00 13.25 C 9.24 g/m*3 13.25 C 2 km/h
572 28-09-2020 19:00:00 12.45833 C 9.3 g/m*3 12.46 C 1.6 km/h
573 28-09-2020 20:00:00 11.85833 C 9.08 g/m*3 11.86 C 0.8 km/h
574 28-09-2020 21:00:00 10.86667 C 8.74 g/m*3 10.87 C 0.53333 km/h
575 28-09-2020 22:00:00 10.80833 C 8.99 g/m*3 10.81 C 0 km/h
Sensor: Nr:Datum:Temp:Abs-Feuchte:Windchill:Wind:
Aussen-T/F 576 28-09-2020 23:00:00 10.95 C 9.15 g/m*3 10.95 C 0.13333 km/h
577 29-09-2020 00:00:00 10.975 C 9.19 g/m*3 10.98 C 0.26667 km/h
578 29-09-2020 01:00:00 11.025 C 9.22 g/m*3 11.03 C 0.4 km/h
579 29-09-2020 02:00:00 11.09167 C 9.26 g/m*3 11.09 C 0 km/h
580 29-09-2020 03:00:00 11.13333 C 9.29 g/m*3 11.13 C 0 km/h
581 29-09-2020 04:00:00 11.2 C 9.36 g/m*3 11.2 C 0 km/h
582 29-09-2020 05:00:00 11.3 C 9.49 g/m*3 11.3 C 0 km/h
583 29-09-2020 06:00:00 11.4 C 9.55 g/m*3 11.4 C 0 km/h
584 29-09-2020 07:00:00 11.59167 C 9.74 g/m*3 11.59 C 0 km/h
585 29-09-2020 08:00:00 11.81667 C 9.96 g/m*3 11.82 C 0 km/h
586 29-09-2020 09:00:00 12.2 C 10.28 g/m*3 12.2 C 1.6 km/h
587 29-09-2020 10:00:00 12.65 C 10.61 g/m*3 12.65 C 3.46667 km/h
588 29-09-2020 11:00:00 13.18333 C 10.92 g/m*3 13.18 C 3.2 km/h
589 29-09-2020 12:00:00 13.725 C 11.23 g/m*3 13.73 C 5.06667 km/h
590 29-09-2020 13:00:00 14.1 C 11.38 g/m*3 14.1 C 6.01667 km/h
591 29-09-2020 14:00:00 14.30833 C 11.62 g/m*3 14.31 C 6.43333 km/h
592 29-09-2020 15:00:00 14.26667 C 11.54 g/m*3 14.27 C 7.93333 km/h
593 29-09-2020 16:00:00 13.43333 C 10.98 g/m*3 13.43 C 5.21667 km/h
594 29-09-2020 17:00:00 13.15833 C 10.88 g/m*3 13.16 C 2.14167 km/h
595 29-09-2020 18:00:00 13.21667 C 10.92 g/m*3 13.22 C 1.86667 km/h
596 29-09-2020 19:00:00 12.425 C 10.4 g/m*3 12.43 C 4.54167 km/h
597 29-09-2020 20:00:00 11.55 C 9.84 g/m*3 11.55 C 0.13333 km/h
598 29-09-2020 21:00:00 10.70833 C 9.34 g/m*3 10.71 C 0 km/h
599 29-09-2020 22:00:00 10.24167 C 9.15 g/m*3 10.24 C 0 km/h
600 29-09-2020 23:00:00 10.5 C 9.34 g/m*3 10.5 C 0 km/h
Sensor: Nr:Datum:Temp:Abs-Feuchte:Windchill:Wind:
Aussen-T/F 601 30-09-2020 00:00:00 10.88333 C 9.64 g/m*3 10.88 C 0 km/h
602 30-09-2020 01:00:00 11.05833 C 9.74 g/m*3 11.06 C 0 km/h
603 30-09-2020 02:00:00 11.2 C 9.83 g/m*3 11.2 C 0 km/h
604 30-09-2020 03:00:00 11.49167 C 10.01 g/m*3 11.49 C 0 km/h
605 30-09-2020 04:00:00 11.75833 C 10.18 g/m*3 11.76 C 0 km/h
606 30-09-2020 05:00:00 11.90833 C 10.28 g/m*3 11.91 C 0 km/h
607 30-09-2020 06:00:00 12.11667 C 10.41 g/m*3 12.12 C 0 km/h
608 30-09-2020 07:00:00 12.23333 C 10.49 g/m*3 12.23 C 0 km/h
609 30-09-2020 08:00:00 12.65 C 10.76 g/m*3 12.65 C 0 km/h
610 30-09-2020 09:00:00 13.59167 C 11.44 g/m*3 13.59 C 0 km/h
611 30-09-2020 10:00:00 14.675 C 12.26 g/m*3 14.68 C 2.13333 km/h
612 30-09-2020 11:00:00 15.65833 C 12.76 g/m*3 15.66 C 4.81667 km/h
613 30-09-2020 12:00:00 16.64167 C 12.95 g/m*3 16.64 C 3.21667 km/h
614 30-09-2020 13:00:00 16.89167 C 12.81 g/m*3 16.89 C 1.6 km/h
615 30-09-2020 14:00:00 17.64167 C 12.94 g/m*3 17.64 C 3.46667 km/h
616 30-09-2020 15:00:00 18.15 C 12.88 g/m*3 18.15 C 4.66667 km/h
617 30-09-2020 16:00:00 17.9 C 12.66 g/m*3 17.9 C 3.86667 km/h
618 30-09-2020 17:00:00 18.00833 C 12.6 g/m*3 18.01 C 3.46667 km/h
619 30-09-2020 18:00:00 17.05 C 12.31 g/m*3 17.05 C 1.73333 km/h
620 30-09-2020 19:00:00 15.55833 C 12.03 g/m*3 15.56 C 0.13333 km/h
621 30-09-2020 20:00:00 14.54167 C 11.43 g/m*3 14.54 C 1.6 km/h
622 30-09-2020 21:00:00 13.25833 C 10.69 g/m*3 13.26 C 1.2 km/h
623 30-09-2020 22:00:00 12.175 C 10.12 g/m*3 12.18 C 2.13333 km/h
624 30-09-2020 23:00:00 11.55 C 9.84 g/m*3 11.55 C 1.73333 km/h
625 01-10-2020 00:00:00 11.06667 C 9.57 g/m*3 11.07 C 0.26667 km/h
Sensor: Nr:Datum:Temp:Abs-Feuchte:Windchill:Wind:
Aussen-T/F 626 01-10-2020 01:00:00 10.68333 C 9.4 g/m*3 10.68 C 0.13333 km/h
627 01-10-2020 02:00:00 10.15833 C 9.11 g/m*3 10.16 C 0.4 km/h
628 01-10-2020 03:00:00 9.85833 C 8.94 g/m*3 9.86 C 0.13333 km/h
629 01-10-2020 04:00:00 9.91667 C 9 g/m*3 9.92 C 0 km/h
630 01-10-2020 05:00:00 10.48333 C 9.39 g/m*3 10.48 C 0 km/h
631 01-10-2020 06:00:00 9.81667 C 8.98 g/m*3 9.82 C 0.26667 km/h
632 01-10-2020 07:00:00 9.51667 C 8.81 g/m*3 9.52 C 0 km/h
633 01-10-2020 08:00:00 10.05833 C 9.15 g/m*3 10.06 C 0 km/h
634 01-10-2020 09:00:00 10.80833 C 9.59 g/m*3 10.81 C 0 km/h
635 01-10-2020 10:00:00 12.25 C 10.57 g/m*3 12.25 C 2.94167 km/h
636 01-10-2020 11:00:00 14.08333 C 11.38 g/m*3 14.08 C 2.8 km/h
637 01-10-2020 12:00:00 16.04167 C 11.72 g/m*3 16.04 C 4.26667 km/h
638 01-10-2020 13:00:00 16.95833 C 11.68 g/m*3 16.96 C 5.35 km/h
639 01-10-2020 14:00:00 16.90833 C 11.52 g/m*3 16.91 C 2.13333 km/h
640 01-10-2020 15:00:00 15.9 C 11.92 g/m*3 15.9 C 1.6 km/h
641 01-10-2020 16:00:00 15.275 C 11.89 g/m*3 15.28 C 1.33333 km/h
642 01-10-2020 17:00:00 15.23333 C 12.06 g/m*3 15.23 C 0.66667 km/h
643 01-10-2020 18:00:00 16.05 C 12.38 g/m*3 16.05 C 2.94167 km/h
644 01-10-2020 19:00:00 13.75 C 10.77 g/m*3 13.75 C 4.26667 km/h
645 01-10-2020 20:00:00 12.34167 C 10.18 g/m*3 12.34 C 3.46667 km/h
646 01-10-2020 21:00:00 12.33333 C 10.35 g/m*3 12.33 C 4.01667 km/h
647 01-10-2020 22:00:00 11.475 C 9.8 g/m*3 11.48 C 1.6 km/h
648 01-10-2020 23:00:00 10.825 C 9.48 g/m*3 10.83 C 4.41667 km/h
649 02-10-2020 00:00:00 10.5 C 9.29 g/m*3 10.5 C 2.13333 km/h
650 02-10-2020 01:00:00 9.85833 C 8.94 g/m*3 9.86 C 0 km/h
Sensor: Nr:Datum:Temp:Abs-Feuchte:Windchill:Wind:
Aussen-T/F 651 02-10-2020 02:00:00 9.21667 C 8.58 g/m*3 9.22 C 0 km/h
652 02-10-2020 03:00:00 8.675 C 8.29 g/m*3 8.68 C 0 km/h
653 02-10-2020 04:00:00 8 C 7.94 g/m*3 8 C 0 km/h
654 02-10-2020 05:00:00 7.8 C 7.86 g/m*3 7.8 C 0 km/h
655 02-10-2020 06:00:00 8.13333 C 8.09 g/m*3 8.13 C 0 km/h
656 02-10-2020 07:00:00 8.46667 C 8.26 g/m*3 8.47 C 0 km/h
657 02-10-2020 08:00:00 9.19167 C 8.66 g/m*3 9.19 C 0 km/h
658 02-10-2020 09:00:00 10.56667 C 9.51 g/m*3 10.57 C 3.20833 km/h
659 02-10-2020 10:00:00 11.975 C 10.37 g/m*3 11.98 C 1.46667 km/h
660 02-10-2020 11:00:00 12.54167 C 10.69 g/m*3 12.54 C 3.34167 km/h
661 02-10-2020 12:00:00 14.15833 C 11.22 g/m*3 14.16 C 10.35833 km/h
662 02-10-2020 13:00:00 16.11667 C 11.62 g/m*3 16.12 C 7.125 km/h
663 02-10-2020 14:00:00 17.65 C 12.01 g/m*3 17.65 C 8.325 km/h
664 02-10-2020 15:00:00 18.44167 C 12.31 g/m*3 18.44 C 5.08333 km/h
665 02-10-2020 16:00:00 18.85 C 12.4 g/m*3 18.85 C 6.45 km/h
666 02-10-2020 17:00:00 18.54167 C 12.15 g/m*3 18.54 C 6.70833 km/h
667 02-10-2020 18:00:00 17.40833 C 12.01 g/m*3 17.41 C 6.98333 km/h
668 02-10-2020 19:00:00 17.44167 C 11.96 g/m*3 17.44 C 6.3 km/h
669 02-10-2020 20:00:00 17.15833 C 11.83 g/m*3 17.16 C 8.45 km/h
670 02-10-2020 21:00:00 17.43333 C 11.78 g/m*3 17.43 C 4.55 km/h
671 02-10-2020 22:00:00 16.725 C 11.56 g/m*3 16.73 C 4.40833 km/h
672 02-10-2020 23:00:00 17.10833 C 11.29 g/m*3 17.11 C 10.875 km/h
673 03-10-2020 00:00:00 17.35833 C 11.19 g/m*3 17.36 C 7.65833 km/h
674 03-10-2020 01:00:00 17.16667 C 11.11 g/m*3 17.17 C 8.2 km/h
675 03-10-2020 02:00:00 15.73333 C 10.9 g/m*3 15.73 C 3.33333 km/h
Sensor: Nr:Datum:Temp:Abs-Feuchte:Windchill:Wind:
Aussen-T/F 676 03-10-2020 03:00:00 14.275 C 10.92 g/m*3 14.28 C 2.66667 km/h
677 03-10-2020 04:00:00 14.19167 C 11.04 g/m*3 14.19 C 0 km/h
678 03-10-2020 05:00:00 13.73333 C 10.79 g/m*3 13.73 C 0 km/h
679 03-10-2020 06:00:00 13.3 C 10.69 g/m*3 13.3 C 0 km/h
680 03-10-2020 07:00:00 13.45 C 10.91 g/m*3 13.45 C 2.675 km/h
681 03-10-2020 08:00:00 13.85 C 11.19 g/m*3 13.85 C 5.61667 km/h
682 03-10-2020 09:00:00 13.83333 C 11 g/m*3 13.83 C 7.78333 km/h
683 03-10-2020 10:00:00 13.69167 C 10.6 g/m*3 13.69 C 11.7 km/h
684 03-10-2020 11:00:00 13.53333 C 10.34 g/m*3 13.53 C 12.49167 km/h
685 03-10-2020 12:00:00 13.08333 C 9.95 g/m*3 13.08 C 13.425 km/h
686 03-10-2020 13:00:00 12.95833 C 9.74 g/m*3 12.96 C 10.85833 km/h
687 03-10-2020 14:00:00 12.025 C 9.72 g/m*3 12.03 C 3.475 km/h
688 03-10-2020 15:00:00 11.94167 C 9.8 g/m*3 11.94 C 1.73333 km/h
689 03-10-2020 16:00:00 12.38333 C 9.75 g/m*3 12.38 C 1.86667 km/h
690 03-10-2020 17:00:00 14.28333 C 10.3 g/m*3 14.28 C 2.8 km/h
691 03-10-2020 18:00:00 14.45 C 10.22 g/m*3 14.45 C 3.86667 km/h
692 03-10-2020 19:00:00 11.88333 C 9.51 g/m*3 11.88 C 2 km/h
693 03-10-2020 20:00:00 11.4 C 9.23 g/m*3 11.4 C 2.26667 km/h
694 03-10-2020 21:00:00 10.81667 C 9.13 g/m*3 10.82 C 0.8 km/h
695 03-10-2020 22:00:00 10.35833 C 8.99 g/m*3 10.36 C 2.66667 km/h
696 03-10-2020 23:00:00 11.19167 C 9.28 g/m*3 11.19 C 4.95 km/h
697 04-10-2020 00:00:00 10.66667 C 8.95 g/m*3 10.67 C 2.66667 km/h
698 04-10-2020 01:00:00 10.63333 C 9.13 g/m*3 10.63 C 1.2 km/h
699 04-10-2020 02:00:00 10.38333 C 9.05 g/m*3 10.38 C 2.26667 km/h
700 04-10-2020 03:00:00 9.925 C 8.83 g/m*3 9.93 C 1.6 km/h
Sensor: Nr:Datum:Temp:Abs-Feuchte:Windchill:Wind:
Aussen-T/F 701 04-10-2020 04:00:00 9.96667 C 8.99 g/m*3 9.97 C 2.66667 km/h
702 04-10-2020 05:00:00 10.38333 C 9.19 g/m*3 10.38 C 4.95 km/h
703 04-10-2020 06:00:00 10.70833 C 9.34 g/m*3 10.71 C 4.95 km/h
704 04-10-2020 07:00:00 10.53333 C 9.19 g/m*3 10.53 C 4.14167 km/h
705 04-10-2020 08:00:00 10.43333 C 9.2 g/m*3 10.43 C 2 km/h
706 04-10-2020 09:00:00 10.93333 C 9.33 g/m*3 10.79 C 5.075 km/h
707 04-10-2020 10:00:00 11.56667 C 9.27 g/m*3 11.57 C 6.575 km/h
708 04-10-2020 11:00:00 12.54167 C 8.98 g/m*3 12.54 C 16.9 km/h
709 04-10-2020 12:00:00 13.175 C 8.75 g/m*3 13.18 C 12.63333 km/h
710 04-10-2020 13:00:00 13.49167 C 8.29 g/m*3 13.49 C 12.36667 km/h
711 04-10-2020 14:00:00 14.15 C 8.51 g/m*3 14.15 C 12.1 km/h
712 04-10-2020 15:00:00 14.96667 C 8.66 g/m*3 14.97 C 8.86667 km/h
713 04-10-2020 16:00:00 15.38333 C 8.65 g/m*3 15.38 C 6.85 km/h
714 04-10-2020 17:00:00 15.00833 C 9.16 g/m*3 15.01 C 2.26667 km/h
715 04-10-2020 18:00:00 14.2 C 9.61 g/m*3 14.2 C 1.86667 km/h
716 04-10-2020 19:00:00 12.56667 C 9.45 g/m*3 12.57 C 4.69167 km/h
717 04-10-2020 20:00:00 11.63333 C 9.5 g/m*3 11.63 C 0.93333 km/h
718 04-10-2020 21:00:00 11.05 C 9.39 g/m*3 11.05 C 2.00833 km/h
719 04-10-2020 22:00:00 9.9 C 8.77 g/m*3 9.9 C 1.33333 km/h
720 04-10-2020 23:00:00 8.96667 C 8.34 g/m*3 8.97 C 0 km/h
721 05-10-2020 00:00:00 8.61667 C 8.2 g/m*3 8.62 C 3.21667 km/h
722 05-10-2020 01:00:00 8.59167 C 8.23 g/m*3 8.59 C 2.53333 km/h
723 05-10-2020 02:00:00 9.175 C 8.58 g/m*3 9.18 C 3.06667 km/h
724 05-10-2020 03:00:00 9.11667 C 8.56 g/m*3 9.12 C 1.33333 km/h
725 05-10-2020 04:00:00 8.94167 C 8.48 g/m*3 8.94 C 2.66667 km/h
Sensor: Nr:Datum:Temp:Abs-Feuchte:Windchill:Wind:
Aussen-T/F 726 05-10-2020 05:00:00 8.59167 C 8.28 g/m*3 8.59 C 3.33333 km/h
727 05-10-2020 06:00:00 8.51667 C 8.29 g/m*3 8.52 C 3.33333 km/h
728 05-10-2020 07:00:00 8.76667 C 8.42 g/m*3 8.77 C 1.86667 km/h
729 05-10-2020 08:00:00 9.23333 C 8.68 g/m*3 9.23 C 2.8 km/h
730 05-10-2020 09:00:00 10.125 C 9.19 g/m*3 10.13 C 2.93333 km/h
731 05-10-2020 10:00:00 10.275 C 9.15 g/m*3 10.04 C 5.09167 km/h
732 05-10-2020 11:00:00 11.60833 C 9.15 g/m*3 11.61 C 8.46667 km/h
733 05-10-2020 12:00:00 12.90833 C 9.27 g/m*3 12.91 C 8.325 km/h
734 05-10-2020 13:00:00 12.875 C 9.49 g/m*3 12.88 C 6.16667 km/h
735 05-10-2020 14:00:00 13.1 C 10.07 g/m*3 13.1 C 4.29167 km/h
736 05-10-2020 15:00:00 14.04167 C 10.13 g/m*3 14.04 C 9.54167 km/h
737 05-10-2020 16:00:00 14.275 C 9.97 g/m*3 14.28 C 10.09167 km/h
738 05-10-2020 17:00:00 13.65833 C 9.73 g/m*3 13.66 C 10.20833 km/h
739 05-10-2020 18:00:00 13.375 C 9.75 g/m*3 13.38 C 3.34167 km/h
740 05-10-2020 19:00:00 12.825 C 9.76 g/m*3 12.83 C 1.46667 km/h
741 05-10-2020 20:00:00 12.09167 C 9.61 g/m*3 12.09 C 3.475 km/h
742 05-10-2020 21:00:00 11.90833 C 9.74 g/m*3 11.91 C 0.8 km/h
743 05-10-2020 22:00:00 11.59167 C 9.68 g/m*3 11.59 C 0.53333 km/h
744 05-10-2020 23:00:00 11.53333 C 9.82 g/m*3 11.53 C 1.46667 km/h

Maximal/Minimal-Werte vom 05.09.2020 - 05.10.2020

Sensor Min Max Avg
Temp
(Aussen-T/F)
7.3 °C
21-09-2020  07:15:00
33.7 °C
15-09-2020  17:35:00
15.12 °C
Abs-Feuchte
(Aussen-T/F)
7.04 g/m*3
19-09-2020  06:00:00
15.19 g/m*3
16-09-2020  18:00:00
9.93 g/m*3
Windchill
(Aussen-T/F)
6.92 C
26-09-2020  06:00:00
33.19 C
15-09-2020  17:00:00
15.07 C

Die Daten stammen von einer Davis Vantage Pro 2 Wetter-Station und werden unter Linux mit der Software wview2wettercgi und aufbereitet. Alle Angaben erfolgen ohne Gewähr für ihre Vollständigkeit oder Richtigkeit.
Kontakt: Rainer Krienke krienke@uni-koblenz.de . Meine Webseiten an der Uni Koblenz oder privat.
Version: $Revision: 0.78 $